createdAt,value
2022-08-05T00:01:36.168Z,34.97
2022-08-05T00:04:18.002Z,19.13
2022-08-05T00:06:46.918Z,17.55
2022-08-05T00:09:15.963Z,16.15
2022-08-05T00:11:49.320Z,16.25
2022-08-05T00:14:27.756Z,15.60
2022-08-05T00:16:57.671Z,13.80
2022-08-05T00:19:33.206Z,17.10
2022-08-05T00:22:11.300Z,18.27
2022-08-05T00:24:42.446Z,17.65
2022-08-05T00:27:14.208Z,20.08
2022-08-05T00:29:44.626Z,18.42
2022-08-05T00:32:15.422Z,15.38
2022-08-05T00:35:03.961Z,16.55
2022-08-05T00:37:50.398Z,15.77
2022-08-05T00:40:27.034Z,18.42
2022-08-05T00:43:00.702Z,16.58
2022-08-05T00:45:38.931Z,22.23
2022-08-05T00:48:27.410Z,16.10
2022-08-05T00:50:58.955Z,18.58
2022-08-05T00:54:00.032Z,21.60
2022-08-05T00:56:17.398Z,26.33
2022-08-05T00:58:50.357Z,15.60
2022-08-05T01:01:42.279Z,15.98
2022-08-05T01:04:13.769Z,21.67
2022-08-05T01:06:46.661Z,23.30
2022-08-05T01:09:19.851Z,21.27
2022-08-05T01:11:53.087Z,20.92
2022-08-05T01:14:38.859Z,20.83
2022-08-05T01:17:11.980Z,20.52
2022-08-05T01:20:00.995Z,22.80
2022-08-05T01:22:41.162Z,22.55
2022-08-05T01:25:40.948Z,26.10
2022-08-05T01:28:14.988Z,24.13
2022-08-05T01:31:12.375Z,27.80
2022-08-05T01:33:55.439Z,23.48
2022-08-05T01:36:28.234Z,27.88
2022-08-05T01:38:56.963Z,28.60
2022-08-05T01:41:31.532Z,28.10
2022-08-05T01:44:03.416Z,29.73
2022-08-05T01:46:41.910Z,28.77
2022-08-05T01:49:23.685Z,28.27
2022-08-05T01:52:00.272Z,25.25
2022-08-05T01:54:53.019Z,21.95
2022-08-05T01:58:14.850Z,24.98
2022-08-05T02:00:15.305Z,21.70
2022-08-05T02:02:54.440Z,27.00
2022-08-05T02:05:25.790Z,29.55
2022-08-05T02:08:01.707Z,29.52
2022-08-05T02:10:35.295Z,30.45
2022-08-05T02:13:16.093Z,24.90
2022-08-05T02:15:51.483Z,23.67
2022-08-05T02:18:34.790Z,23.17
2022-08-05T02:21:23.705Z,24.35
2022-08-05T02:23:55.972Z,22.98
2022-08-05T02:26:51.806Z,25.13
2022-08-05T02:29:24.255Z,26.77
2022-08-05T02:31:57.586Z,24.00
2022-08-05T02:34:28.075Z,23.95
2022-08-05T02:36:58.312Z,28.35
2022-08-05T02:39:28.127Z,26.77
2022-08-05T02:42:01.294Z,25.77
2022-08-05T02:44:31.189Z,23.30
2022-08-05T02:47:00.750Z,24.70
2022-08-05T02:49:36.801Z,21.45
2022-08-05T02:52:29.639Z,21.27
2022-08-05T02:55:01.959Z,20.00
2022-08-05T02:58:11.546Z,19.67
2022-08-05T03:00:25.322Z,22.63
2022-08-05T03:02:53.939Z,23.77
2022-08-05T03:05:21.939Z,23.35
2022-08-05T03:08:10.897Z,21.73
2022-08-05T03:10:38.601Z,18.90
2022-08-05T03:13:17.046Z,19.58
2022-08-05T03:15:46.151Z,20.98
2022-08-05T03:18:14.378Z,22.02
2022-08-05T03:20:48.751Z,21.25
2022-08-05T03:23:16.644Z,20.08
2022-08-05T03:26:04.579Z,18.67
2022-08-05T03:28:32.007Z,20.05
2022-08-05T03:31:00.968Z,19.13
2022-08-05T03:33:49.294Z,19.67
2022-08-05T03:36:16.878Z,18.35
2022-08-05T03:38:59.466Z,18.42
2022-08-05T03:41:33.048Z,21.75
2022-08-05T03:44:11.825Z,17.42
2022-08-05T03:46:39.491Z,20.02
2022-08-05T03:49:06.916Z,18.85
2022-08-05T03:52:36.558Z,19.25
2022-08-05T03:56:04.437Z,19.65
2022-08-05T03:58:05.958Z,27.30
2022-08-05T04:00:33.831Z,21.42
2022-08-05T04:03:03.084Z,22.10
2022-08-05T04:05:34.768Z,21.48
2022-08-05T04:08:05.713Z,19.83
2022-08-05T04:10:45.068Z,18.80
2022-08-05T04:13:14.275Z,20.60
2022-08-05T04:16:03.343Z,19.73
2022-08-05T04:18:29.398Z,19.27
2022-08-05T04:20:58.280Z,19.83
2022-08-05T04:24:04.959Z,19.75
2022-08-05T04:26:15.604Z,19.85
2022-08-05T04:28:51.249Z,18.80
2022-08-05T04:31:20.220Z,18.08
2022-08-05T04:34:18.439Z,20.00
2022-08-05T04:36:46.443Z,19.50
2022-08-05T04:39:21.691Z,19.95
2022-08-05T04:41:50.977Z,21.75
2022-08-05T04:44:21.559Z,22.25
2022-08-05T04:47:09.839Z,22.33
2022-08-05T04:50:02.533Z,21.48
2022-08-05T04:52:27.397Z,22.23
2022-08-05T04:54:57.376Z,23.63
2022-08-05T04:57:29.288Z,22.73
2022-08-05T05:00:06.819Z,25.17
2022-08-05T05:02:41.757Z,24.58
2022-08-05T05:05:26.474Z,25.27
2022-08-05T05:08:02.097Z,25.42
2022-08-05T05:10:33.515Z,34.90
2022-08-05T05:13:01.940Z,26.38
2022-08-05T05:15:59.140Z,27.80
2022-08-05T05:18:28.385Z,30.95
2022-08-05T05:20:59.334Z,29.42
2022-08-05T05:23:39.358Z,30.38
2022-08-05T05:26:17.643Z,29.58
2022-08-05T05:28:45.539Z,29.15
2022-08-05T05:31:13.794Z,30.13
2022-08-05T05:33:59.367Z,30.48
2022-08-05T05:36:29.862Z,30.88
2022-08-05T05:38:58.231Z,32.72
2022-08-05T05:41:26.603Z,33.63
2022-08-05T05:44:35.445Z,31.58
2022-08-05T05:46:56.241Z,32.75
2022-08-05T05:49:26.981Z,32.10
2022-08-05T05:51:54.961Z,34.47
2022-08-05T05:54:22.566Z,34.78
2022-08-05T05:57:13.901Z,35.20
2022-08-05T05:59:48.853Z,34.20
2022-08-05T06:02:17.059Z,35.60
2022-08-05T06:05:00.582Z,34.42
2022-08-05T06:07:42.041Z,34.97
2022-08-05T06:10:21.450Z,34.75
2022-08-05T06:12:51.740Z,34.22
2022-08-05T06:15:23.757Z,35.92
2022-08-05T06:17:55.339Z,34.17
2022-08-05T06:20:23.199Z,33.70
2022-08-05T06:22:53.913Z,31.77
2022-08-05T06:25:59.641Z,34.90
2022-08-05T06:28:12.037Z,31.55
2022-08-05T06:30:52.643Z,35.08
2022-08-05T06:33:33.351Z,29.25
2022-08-05T06:36:10.424Z,30.30
2022-08-05T06:38:46.937Z,28.45
2022-08-05T06:41:15.216Z,28.05
2022-08-05T06:43:58.328Z,31.40
2022-08-05T06:46:29.784Z,26.95
2022-08-05T06:49:00.769Z,25.23
2022-08-05T06:51:30.810Z,21.38
2022-08-05T06:54:00.188Z,21.75
2022-08-05T06:56:30.287Z,16.77
2022-08-05T06:59:08.417Z,17.10
2022-08-05T07:01:46.217Z,17.23
2022-08-05T07:04:14.273Z,16.60
2022-08-05T07:06:42.608Z,18.05
2022-08-05T07:09:10.037Z,17.13
2022-08-05T07:11:39.715Z,16.20
2022-08-05T07:14:29.429Z,17.90
2022-08-05T07:18:01.836Z,18.13
2022-08-05T07:22:45.844Z,21.25
2022-08-05T07:25:22.493Z,17.30
2022-08-05T07:27:58.719Z,19.25
2022-08-05T07:30:38.703Z,16.20
2022-08-05T07:33:15.479Z,18.30
2022-08-05T07:36:01.696Z,15.63
2022-08-05T07:38:33.599Z,17.55
2022-08-05T07:42:06.798Z,15.80
2022-08-05T07:43:57.279Z,15.35
2022-08-05T07:46:29.784Z,13.40
2022-08-05T07:49:05.759Z,16.33
2022-08-05T07:51:40.256Z,16.25
2022-08-05T07:54:11.535Z,15.52
2022-08-05T07:57:01.988Z,14.55
2022-08-05T07:59:40.141Z,14.52
2022-08-05T08:02:16.675Z,16.40
2022-08-05T08:04:49.474Z,16.88
2022-08-05T08:07:23.039Z,17.85
2022-08-05T08:09:52.764Z,19.05
2022-08-05T08:12:33.446Z,17.02
2022-08-05T08:15:15.552Z,18.92
2022-08-05T08:17:50.774Z,17.60
2022-08-05T08:20:59.819Z,15.65
2022-08-05T08:24:03.356Z,15.77
2022-08-05T08:26:04.648Z,17.83
2022-08-05T08:28:36.849Z,19.02
2022-08-05T08:31:18.791Z,24.27
2022-08-05T08:33:51.576Z,15.73
2022-08-05T08:36:29.415Z,19.55
2022-08-05T08:39:15.733Z,15.43
2022-08-05T08:41:59.798Z,17.27
2022-08-05T08:45:20.485Z,15.50
2022-08-05T08:48:06.433Z,15.38
2022-08-05T08:50:30.622Z,15.75
2022-08-05T08:53:07.978Z,16.40
2022-08-05T08:56:04.750Z,17.45
2022-08-05T08:58:37.061Z,15.48
2022-08-05T09:01:16.718Z,16.70
2022-08-05T09:03:57.289Z,15.63
2022-08-05T09:06:28.075Z,15.38
2022-08-05T09:09:10.626Z,14.65
2022-08-05T09:11:53.670Z,14.10
2022-08-05T09:14:57.714Z,14.20
2022-08-05T09:17:42.717Z,15.20
2022-08-05T09:20:05.799Z,13.77
2022-08-05T09:23:07.733Z,15.05
2022-08-05T09:26:02.417Z,14.35
2022-08-05T09:28:32.329Z,13.48
2022-08-05T09:31:22.458Z,14.25
2022-08-05T09:33:59.486Z,14.35
2022-08-05T09:36:54.205Z,15.27
2022-08-05T09:39:41.632Z,14.30
2022-08-05T09:42:22.978Z,13.70
2022-08-05T09:44:56.588Z,14.65
2022-08-05T09:47:48.344Z,14.18
2022-08-05T09:50:37.788Z,16.23
2022-08-05T09:53:08.891Z,16.05
2022-08-05T09:55:56.699Z,18.33
2022-08-05T09:58:29.169Z,16.10
2022-08-05T10:01:15.669Z,17.13
2022-08-05T10:04:00.082Z,16.15
2022-08-05T10:06:28.361Z,16.58
2022-08-05T10:08:59.306Z,17.17
2022-08-05T10:11:31.305Z,16.05
2022-08-05T10:14:22.356Z,18.20
2022-08-05T10:16:58.839Z,13.73
2022-08-05T10:20:02.954Z,11.10
2022-08-05T10:22:29.956Z,12.02
2022-08-05T10:24:58.422Z,7.72
2022-08-05T10:28:12.926Z,9.70
2022-08-05T10:31:20.300Z,9.07
2022-08-05T10:33:14.496Z,7.45
2022-08-05T10:35:44.136Z,6.60
2022-08-05T10:38:13.363Z,4.68
2022-08-05T10:40:46.640Z,4.50
2022-08-05T10:43:14.436Z,3.90
2022-08-05T10:45:42.950Z,4.45
2022-08-05T10:48:57.146Z,3.67
2022-08-05T10:51:28.860Z,3.20
2022-08-05T10:54:00.900Z,5.72
2022-08-05T10:56:31.281Z,5.38
2022-08-05T10:58:58.937Z,5.28
2022-08-05T11:01:55.180Z,6.22
2022-08-05T11:04:44.976Z,7.78
2022-08-05T11:07:32.870Z,7.32
2022-08-05T11:10:22.073Z,6.82
2022-08-05T11:13:01.055Z,7.40
2022-08-05T11:16:00.874Z,7.10
2022-08-05T11:18:34.071Z,7.15
2022-08-05T11:21:11.361Z,9.18
2022-08-05T11:24:03.913Z,9.27
2022-08-05T11:26:43.423Z,8.15
2022-08-05T11:29:34.741Z,7.63
2022-08-05T11:32:29.884Z,7.95
2022-08-05T11:34:59.701Z,10.27
2022-08-05T11:38:30.742Z,8.23
2022-08-05T11:41:34.815Z,15.30
2022-08-05T11:44:08.483Z,8.88
2022-08-05T11:47:09.321Z,9.68
2022-08-05T11:49:49.831Z,9.05
2022-08-05T11:52:29.330Z,7.60
2022-08-05T11:55:07.436Z,10.80
2022-08-05T11:58:07.943Z,9.52
2022-08-05T12:00:37.839Z,9.55
2022-08-05T12:03:31.718Z,12.18
2022-08-05T12:06:06.571Z,9.48
2022-08-05T12:08:53.284Z,9.43
2022-08-05T12:11:28.354Z,11.77
2022-08-05T12:14:15.061Z,10.75
2022-08-05T12:16:47.482Z,9.43
2022-08-05T12:20:25.995Z,8.35
2022-08-05T12:22:09.555Z,9.13
2022-08-05T12:24:49.708Z,10.25
2022-08-05T12:27:25.439Z,10.63
2022-08-05T12:30:15.286Z,10.55
2022-08-05T12:32:50.393Z,13.85
2022-08-05T12:35:21.909Z,14.85
2022-08-05T12:37:53.344Z,11.55
2022-08-05T12:40:26.923Z,14.05
2022-08-05T12:42:57.281Z,13.95
2022-08-05T12:45:42.539Z,15.65
2022-08-05T12:48:27.457Z,15.27
2022-08-05T12:52:10.672Z,15.98
2022-08-05T12:54:16.489Z,15.88
2022-08-05T12:57:14.790Z,20.70
2022-08-05T13:01:57.763Z,18.67
2022-08-05T13:02:36.381Z,14.50
2022-08-05T13:05:06.936Z,19.95
2022-08-05T13:07:59.472Z,14.52
2022-08-05T13:10:32.635Z,18.27
2022-08-05T13:13:02.603Z,15.88
2022-08-05T13:15:41.980Z,14.30
2022-08-05T13:18:37.880Z,12.57
2022-08-05T13:21:10.582Z,14.38
2022-08-05T13:23:50.695Z,16.55
2022-08-05T13:26:24.058Z,17.27
2022-08-05T13:28:59.251Z,16.00
2022-08-05T13:32:03.281Z,17.73
2022-08-05T13:34:22.197Z,19.20
2022-08-05T13:36:54.208Z,59.50
2022-08-05T13:40:15.905Z,24.50
2022-08-05T13:42:14.470Z,46.00
2022-08-05T13:44:46.608Z,26.63
2022-08-05T13:47:35.074Z,25.38
2022-08-05T13:50:05.479Z,21.02
2022-08-05T13:52:36.971Z,21.23
2022-08-05T13:55:07.240Z,23.65
2022-08-05T13:57:51.268Z,21.13
2022-08-05T14:00:27.304Z,16.83
2022-08-05T14:03:00.929Z,16.15
2022-08-05T14:06:24.714Z,20.08
2022-08-05T14:08:21.274Z,15.25
2022-08-05T14:10:59.613Z,18.55
2022-08-05T14:13:32.269Z,15.05
2022-08-05T14:16:05.017Z,10.90
2022-08-05T14:18:37.994Z,10.77
2022-08-05T14:22:10.084Z,12.55
2022-08-05T14:23:53.331Z,12.95
2022-08-05T14:26:38.476Z,10.32
2022-08-05T14:29:16.444Z,11.55
2022-08-05T14:32:02.725Z,11.27
2022-08-05T14:34:35.623Z,10.68
2022-08-05T14:37:06.542Z,9.75
2022-08-05T14:39:50.143Z,9.60
2022-08-05T14:42:22.588Z,10.07
2022-08-05T14:44:52.947Z,12.07
2022-08-05T14:47:58.531Z,10.85
2022-08-05T14:50:18.514Z,10.95
2022-08-05T14:52:53.547Z,11.32
2022-08-05T14:55:26.049Z,16.25
2022-08-05T14:58:10.802Z,15.95
2022-08-05T15:01:16.259Z,17.00
2022-08-05T15:03:45.362Z,22.55
2022-08-05T15:06:15.785Z,24.42
2022-08-05T15:08:59.046Z,24.13
2022-08-05T15:11:51.117Z,17.92
2022-08-05T15:14:34.676Z,20.02
2022-08-05T15:17:44.690Z,19.08
2022-08-05T15:20:01.379Z,60.42
2022-08-05T15:22:28.924Z,30.05
2022-08-05T15:24:59.415Z,23.52
2022-08-05T15:27:35.880Z,22.95
2022-08-05T15:30:04.530Z,15.48
2022-08-05T15:32:33.920Z,16.95
2022-08-05T15:35:10.691Z,19.42
2022-08-05T15:38:33.317Z,14.73
2022-08-05T15:41:04.619Z,24.17
2022-08-05T15:43:23.886Z,21.52
2022-08-05T15:45:59.826Z,16.02
2022-08-05T15:48:30.100Z,24.30
2022-08-05T15:51:03.500Z,15.68
2022-08-05T15:53:38.060Z,20.38
2022-08-05T15:56:22.940Z,11.30
2022-08-05T15:58:52.057Z,22.10
2022-08-05T16:01:29.560Z,30.92
2022-08-05T16:04:12.665Z,35.97
2022-08-05T16:06:49.956Z,20.10
2022-08-05T16:09:22.191Z,13.00
2022-08-05T16:11:52.828Z,19.92
2022-08-05T16:14:22.405Z,14.68
2022-08-05T16:16:49.995Z,37.90
2022-08-05T16:20:03.390Z,15.07
2022-08-05T16:22:11.126Z,18.05
2022-08-05T16:24:51.953Z,17.67
2022-08-05T16:27:47.179Z,12.95
2022-08-05T16:30:08.493Z,9.25
2022-08-05T16:32:51.055Z,12.48
2022-08-05T16:35:20.256Z,10.02
2022-08-05T16:38:02.565Z,11.98
2022-08-05T16:40:47.897Z,8.13
2022-08-05T16:43:23.698Z,9.32
2022-08-05T16:46:06.775Z,8.77
2022-08-05T16:48:41.873Z,7.90
2022-08-05T16:51:13.896Z,15.60
2022-08-05T16:54:05.090Z,8.07
2022-08-05T16:56:33.963Z,12.38
2022-08-05T16:59:08.489Z,10.73
2022-08-05T17:01:54.347Z,12.38
2022-08-05T17:04:28.199Z,12.18
2022-08-05T17:07:01.298Z,14.90
2022-08-05T17:09:30.108Z,17.48
2022-08-05T17:11:59.345Z,12.85
2022-08-05T17:14:45.417Z,13.00
2022-08-05T17:17:41.969Z,16.45
2022-08-05T17:20:16.535Z,16.98
2022-08-05T17:22:47.625Z,12.82
2022-08-05T17:25:33.735Z,10.50
2022-08-05T17:28:07.816Z,16.27
2022-08-05T17:30:50.734Z,16.77
2022-08-05T17:33:25.559Z,12.98
2022-08-05T17:36:07.770Z,11.10
2022-08-05T17:38:41.274Z,15.80
2022-08-05T17:41:11.697Z,20.50
2022-08-05T17:43:57.972Z,14.18
2022-08-05T17:46:27.638Z,30.77
2022-08-05T17:49:06.325Z,14.50
2022-08-05T17:51:40.263Z,11.77
2022-08-05T17:54:10.918Z,13.43
2022-08-05T17:56:38.773Z,15.80
2022-08-05T17:59:06.327Z,12.77
2022-08-05T18:01:49.427Z,11.77
2022-08-05T18:04:21.238Z,11.60
2022-08-05T18:06:55.212Z,12.23
2022-08-05T18:09:58.555Z,15.20
2022-08-05T18:12:22.156Z,14.55
2022-08-05T18:14:54.928Z,23.52
2022-08-05T18:18:01.503Z,15.23
2022-08-05T18:20:14.017Z,20.23
2022-08-05T18:22:54.111Z,23.08
2022-08-05T18:25:22.472Z,16.30
2022-08-05T18:27:54.546Z,16.65
2022-08-05T18:30:22.201Z,15.75
2022-08-05T18:33:00.935Z,17.70
2022-08-05T18:35:59.709Z,17.60
2022-08-05T18:38:26.404Z,15.35
2022-08-05T18:41:54.170Z,96.53
2022-08-05T18:43:51.036Z,19.88
2022-08-05T18:46:20.111Z,17.50
2022-08-05T18:48:52.663Z,17.90
2022-08-05T18:52:06.505Z,16.83
2022-08-05T18:54:28.397Z,18.60
2022-08-05T18:57:02.414Z,18.13
2022-08-05T18:59:43.440Z,14.77
2022-08-05T19:02:26.834Z,17.88
2022-08-05T19:05:02.248Z,19.23
2022-08-05T19:07:48.189Z,21.20
2022-08-05T19:10:17.508Z,21.58
2022-08-05T19:12:49.645Z,17.83
2022-08-05T19:15:59.323Z,19.27
2022-08-05T19:18:21.859Z,22.02
2022-08-05T19:20:54.716Z,22.48
2022-08-05T19:24:07.245Z,21.00
2022-08-05T19:26:16.699Z,23.08
2022-08-05T19:28:46.649Z,22.33
2022-08-05T19:31:19.278Z,24.15
2022-08-05T19:33:56.292Z,22.20
2022-08-05T19:36:25.890Z,22.45
2022-08-05T19:39:00.942Z,25.48
2022-08-05T19:41:58.310Z,24.15
2022-08-05T19:44:21.980Z,27.85
2022-08-05T19:46:50.904Z,25.15
2022-08-05T19:49:22.521Z,24.15
2022-08-05T19:52:09.128Z,25.30
2022-08-05T19:54:41.399Z,25.42
2022-08-05T19:57:11.859Z,27.58
2022-08-05T19:59:54.686Z,27.25
2022-08-05T20:02:31.433Z,27.52
2022-08-05T20:05:00.063Z,27.20
2022-08-05T20:07:45.903Z,25.63
2022-08-05T20:10:22.199Z,26.73
2022-08-05T20:12:50.095Z,24.17
2022-08-05T20:15:48.231Z,26.50
2022-08-05T20:18:32.691Z,24.08
2022-08-05T20:21:04.806Z,26.60
2022-08-05T20:23:51.076Z,29.15
2022-08-05T20:26:24.751Z,28.58
2022-08-05T20:28:56.816Z,28.48
2022-08-05T20:31:42.995Z,27.88
2022-08-05T20:34:19.480Z,26.83
2022-08-05T20:36:48.559Z,27.98
2022-08-05T20:39:17.618Z,26.42
2022-08-05T20:41:47.811Z,25.35
2022-08-05T20:44:30.566Z,26.50
2022-08-05T20:47:03.082Z,26.38
2022-08-05T20:49:39.458Z,25.83
2022-08-05T20:52:07.941Z,25.25
2022-08-05T20:54:55.349Z,25.80
2022-08-05T20:57:42.715Z,24.63
2022-08-05T21:00:40.619Z,28.20
2022-08-05T21:03:07.413Z,26.77
2022-08-05T21:05:53.525Z,24.15
2022-08-05T21:08:41.966Z,24.52
2022-08-05T21:12:10.553Z,24.55
2022-08-05T21:14:04.855Z,26.27
2022-08-05T21:16:34.703Z,23.98
2022-08-05T21:19:03.873Z,26.27
2022-08-05T21:21:39.043Z,23.10
2022-08-05T21:24:15.521Z,26.58
2022-08-05T21:26:47.374Z,23.80
2022-08-05T21:29:31.585Z,26.55
2022-08-05T21:32:02.888Z,25.65
2022-08-05T21:34:31.772Z,26.85
2022-08-05T21:37:00.763Z,26.80
2022-08-05T21:39:34.807Z,25.40
2022-08-05T21:42:30.560Z,26.00
2022-08-05T21:44:56.274Z,28.80
2022-08-05T21:47:55.683Z,30.08
2022-08-05T21:50:13.387Z,25.63
2022-08-05T21:52:47.214Z,28.63
2022-08-05T21:55:18.102Z,27.67
2022-08-05T21:58:05.770Z,29.50
2022-08-05T22:00:34.547Z,26.38
2022-08-05T22:03:04.382Z,25.50
2022-08-05T22:05:48.114Z,25.85
2022-08-05T22:08:24.095Z,25.63
2022-08-05T22:10:54.724Z,30.58
2022-08-05T22:14:20.000Z,25.63
2022-08-05T22:16:41.166Z,22.48
2022-08-05T22:19:01.225Z,24.77
2022-08-05T22:21:29.365Z,24.65
2022-08-05T22:24:40.360Z,24.15
2022-08-05T22:27:24.858Z,23.70
2022-08-05T22:30:14.135Z,20.52
2022-08-05T22:32:44.968Z,25.30
2022-08-05T22:35:14.103Z,22.20
2022-08-05T22:37:58.095Z,19.80
2022-08-05T22:40:30.811Z,36.80
2022-08-05T22:42:58.797Z,22.67
2022-08-05T22:45:27.019Z,46.70
2022-08-05T22:47:58.382Z,22.77
2022-08-05T22:50:27.823Z,22.33
2022-08-05T22:52:57.023Z,18.20
2022-08-05T22:55:25.990Z,20.65
2022-08-05T22:57:55.613Z,22.27
2022-08-05T23:00:26.611Z,21.77
2022-08-05T23:02:56.597Z,20.02
2022-08-05T23:05:26.291Z,19.10
2022-08-05T23:08:04.696Z,21.35
2022-08-05T23:10:50.911Z,21.20
2022-08-05T23:13:36.363Z,19.85
2022-08-05T23:16:04.907Z,19.38
2022-08-05T23:18:32.978Z,20.63
2022-08-05T23:21:01.021Z,18.65
2022-08-05T23:23:33.672Z,18.15
2022-08-05T23:26:03.749Z,19.17
2022-08-05T23:28:36.479Z,18.45
2022-08-05T23:31:16.914Z,18.20
2022-08-05T23:34:05.658Z,19.45
2022-08-05T23:36:39.997Z,18.90
2022-08-05T23:39:17.555Z,21.65
2022-08-05T23:42:00.133Z,18.85
2022-08-05T23:44:31.204Z,17.33
2022-08-05T23:47:02.583Z,18.92
2022-08-05T23:49:45.701Z,22.23
2022-08-05T23:52:32.444Z,17.40
2022-08-05T23:55:09.545Z,18.20
2022-08-05T23:57:38.391Z,17.60
